PS39 weather

Downes Airport
Clymer, Pennsylvania, United States

Public forecast

Using degrees Fahrenheit for public forecast. Weather courtesy of forecast.io.

METAR (pilot weather report)

Closest report is Indiana County/Jimmy Stewart Fld/ Airport, 6.6 nm (12.3 km) W. Retrieved 2019/05/19 16:35 UTC (0 seconds ago):

KIDI 191635Z AUTO 25008G15KT 10SM SCT048 SCT060 27/19 A2999 RMK A01

TAF (pilot weather forecast)

Closest forecast is John Murtha Johnstown Cambria County Airport, 19.6 nm (36.3 km) SSE. Retrieved 2019/05/19 12:54 UTC (3 hours ago):

TAF KJST 191150Z 1912/2012 19006KT P6SM SCT060 FM191600 22010G18KT P6SM -SHRA BKN050 FM191800 22010G18KT P6SM -SHRA VCTS OVC035CB FM200000 22010KT P6SM BKN050